A- A+ FrançaisEnglishEspañol中国

Services sur Internet Soldes sur Internet Des idées de cadeaux Météo Météo aéro

La météo à : Autours de vous St-Nazaire-Montoir Grenoble-Le-Versoud Biarritz-Bayonne-Anglet Pau-Pyrénées

carte TEMSI

Pour illustration, la carte TEMSI n'est pas mise à jour

La météo aéronautique pour les pilotes, la préparation du vol avec les METAR (METeorological Aerodrome Report, message d'observation des conditions météorologiques pour l'aviation) et Les TAF (Terminal Aerodrome Forecast : message de prévision à court terme des conditions météorologiques pour l'aviation). Et les autres ressources comme les VAC (Visual Approch Chart) et les NOTAM (Notice To Airman) pour préprer les vols.

Aéroport Islay (Royaume-Uni) / OACI EGPI/ IATA ILY

L'altitude de l'aéroport Islay est de 17 m = 56 ft. Il est situé à proximité de Port Ellen (Royaume-Uni). La météo générale à 5 jours est disponible pour Bruichladdich situé à 11.4 km.

METAR de l'aéroport Islay - EGPI

EGPI 101520Z 27026G37KT 9999 -RA FEW018 SCT027 BKN036 07/05 Q0987

Décodage du METAR de l'aéroport Islay (GB)

METAR émis par EGPI le mardi 10 décembre 2019 à 15:20 heure TU, il y a 15 minutes.

La visibilité est de supérieure à 10 km = supérieure à 6.2 sm.

La température est de 7°C = 45 °F et le point rosée est de 5°C = 41 °F . Ce qui correspond à 87% d'humidité relative.

Le QNH est de 987 hPa = 29.15 inHg

Vent de 26 kt = 48 km/h avec des rafales à 37 kt = 69 km/h, orienté à 270°.

Nuages : Quelques nuages à 1800 ft = 550 mètres. Nuages épars à 2700 ft = 820 mètres. Couverture nuageuse fragmentée à 3600 ft = 1100 mètres.

-RA

TAF de l'aéroport Islay - EGPI

EGPI 101426Z 1015/1019 27022G35KT 9999 SCT030

EGPI 101426Z 1015/1019 27022G35KT 9999 nuages épars à 030

Aéroport à proximité de Islay

Météo générale à 5 jours à Bruichladdich (11.4 km)Aéroport Campbeltown (45 km)Aéroport City of Derry (91 km)Aéroport Tiree (99 km)Aéroport Prestwick (107 km)Aéroport Belfast - Aldergrove (114 km)Aéroport Glasgow (116 km)

Vue aérienne de l'aéroport Islay

NOTAM de l'aéroport Islay

Les NOTAM sont fournis sans aucune garantie de leur actualité. Le pilote est le seul responsable de la vérification de sa validité avant de l'utiliser opérationnellement pour préparer un vol ou l'utiliser lors de sa navigation.

Pas de NOTAM

Sources des données